sensor_id;sensor_type;location;lat;lon;timestamp;P1;durP1;ratioP1;P2;durP2;ratioP2
85734;SDS011;76179;42.316;22.856;2024-02-26T00:01:48;9.73;;;4.43;;
85734;SDS011;76179;42.316;22.856;2024-02-26T00:04:13;9.27;;;4.50;;
85734;SDS011;76179;42.316;22.856;2024-02-26T00:06:38;9.88;;;6.30;;
85734;SDS011;76179;42.316;22.856;2024-02-26T00:09:07;11.13;;;5.78;;
85734;SDS011;76179;42.316;22.856;2024-02-26T00:11:35;10.80;;;4.30;;
85734;SDS011;76179;42.316;22.856;2024-02-26T00:14:01;7.43;;;3.15;;
85734;SDS011;76179;42.316;22.856;2024-02-26T00:16:27;8.90;;;2.92;;
85734;SDS011;76179;42.316;22.856;2024-02-26T00:18:52;8.35;;;4.68;;
85734;SDS011;76179;42.316;22.856;2024-02-26T00:21:17;7.38;;;4.20;;
85734;SDS011;76179;42.316;22.856;2024-02-26T00:23:43;8.73;;;4.78;;
85734;SDS011;76179;42.316;22.856;2024-02-26T00:26:08;8.50;;;3.50;;
85734;SDS011;76179;42.316;22.856;2024-02-26T00:28:35;9.85;;;3.30;;
85734;SDS011;76179;42.316;22.856;2024-02-26T00:31:01;10.88;;;4.18;;
85734;SDS011;76179;42.316;22.856;2024-02-26T00:33:27;9.50;;;3.50;;
85734;SDS011;76179;42.316;22.856;2024-02-26T00:35:53;8.02;;;3.97;;
85734;SDS011;76179;42.316;22.856;2024-02-26T00:38:18;11.43;;;3.55;;
85734;SDS011;76179;42.316;22.856;2024-02-26T00:40:44;7.90;;;3.20;;
85734;SDS011;76179;42.316;22.856;2024-02-26T00:43:09;8.13;;;2.95;;
85734;SDS011;76179;42.316;22.856;2024-02-26T00:45:34;9.90;;;3.42;;
85734;SDS011;76179;42.316;22.856;2024-02-26T00:48:00;7.38;;;3.30;;
85734;SDS011;76179;42.316;22.856;2024-02-26T00:50:29;8.10;;;3.65;;
85734;SDS011;76179;42.316;22.856;2024-02-26T00:52:55;7.18;;;3.60;;
85734;SDS011;76179;42.316;22.856;2024-02-26T00:55:20;8.93;;;3.88;;
85734;SDS011;76179;42.316;22.856;2024-02-26T00:57:45;8.70;;;4.07;;
85734;SDS011;76179;42.316;22.856;2024-02-26T01:00:11;9.25;;;3.90;;
85734;SDS011;76179;42.316;22.856;2024-02-26T01:02:37;8.65;;;3.97;;
85734;SDS011;76179;42.316;22.856;2024-02-26T01:05:03;8.43;;;3.70;;
85734;SDS011;76179;42.316;22.856;2024-02-26T01:07:31;9.40;;;4.05;;
85734;SDS011;76179;42.316;22.856;2024-02-26T01:10:00;7.78;;;3.42;;
85734;SDS011;76179;42.316;22.856;2024-02-26T01:12:30;9.95;;;5.05;;
85734;SDS011;76179;42.316;22.856;2024-02-26T01:14:56;9.25;;;4.07;;
85734;SDS011;76179;42.316;22.856;2024-02-26T01:17:21;7.50;;;3.88;;
85734;SDS011;76179;42.316;22.856;2024-02-26T01:19:47;10.15;;;4.07;;
85734;SDS011;76179;42.316;22.856;2024-02-26T01:22:12;10.40;;;5.40;;
85734;SDS011;76179;42.316;22.856;2024-02-26T01:24:37;9.30;;;3.90;;
85734;SDS011;76179;42.316;22.856;2024-02-26T01:27:03;9.40;;;5.35;;
85734;SDS011;76179;42.316;22.856;2024-02-26T01:29:29;8.15;;;3.42;;
85734;SDS011;76179;42.316;22.856;2024-02-26T01:31:54;8.52;;;3.08;;
85734;SDS011;76179;42.316;22.856;2024-02-26T01:34:20;7.13;;;3.20;;
85734;SDS011;76179;42.316;22.856;2024-02-26T01:36:45;6.22;;;3.20;;
85734;SDS011;76179;42.316;22.856;2024-02-26T01:39:11;7.03;;;2.65;;
85734;SDS011;76179;42.316;22.856;2024-02-26T01:41:37;7.80;;;3.38;;
85734;SDS011;76179;42.316;22.856;2024-02-26T01:44:03;6.32;;;3.13;;
85734;SDS011;76179;42.316;22.856;2024-02-26T01:46:29;8.70;;;3.45;;
85734;SDS011;76179;42.316;22.856;2024-02-26T01:48:57;9.57;;;3.08;;
85734;SDS011;76179;42.316;22.856;2024-02-26T01:51:23;7.20;;;3.58;;
85734;SDS011;76179;42.316;22.856;2024-02-26T01:53:48;8.20;;;4.00;;
85734;SDS011;76179;42.316;22.856;2024-02-26T01:56:14;13.63;;;5.18;;
85734;SDS011;76179;42.316;22.856;2024-02-26T01:58:42;11.00;;;5.57;;
85734;SDS011;76179;42.316;22.856;2024-02-26T02:01:08;10.43;;;4.47;;
85734;SDS011;76179;42.316;22.856;2024-02-26T02:03:34;9.15;;;4.40;;
85734;SDS011;76179;42.316;22.856;2024-02-26T02:06:01;8.52;;;3.88;;
85734;SDS011;76179;42.316;22.856;2024-02-26T02:08:27;9.40;;;4.15;;
85734;SDS011;76179;42.316;22.856;2024-02-26T02:10:53;7.10;;;4.35;;
85734;SDS011;76179;42.316;22.856;2024-02-26T02:13:18;7.70;;;4.22;;
85734;SDS011;76179;42.316;22.856;2024-02-26T02:15:43;9.88;;;4.40;;
85734;SDS011;76179;42.316;22.856;2024-02-26T02:18:09;7.30;;;3.42;;
85734;SDS011;76179;42.316;22.856;2024-02-26T02:20:34;8.00;;;4.30;;
85734;SDS011;76179;42.316;22.856;2024-02-26T02:23:00;7.95;;;4.13;;
85734;SDS011;76179;42.316;22.856;2024-02-26T02:25:26;10.90;;;5.28;;
85734;SDS011;76179;42.316;22.856;2024-02-26T02:27:53;9.13;;;4.85;;
85734;SDS011;76179;42.316;22.856;2024-02-26T02:30:19;10.80;;;5.95;;
85734;SDS011;76179;42.316;22.856;2024-02-26T02:32:49;10.23;;;4.70;;
85734;SDS011;76179;42.316;22.856;2024-02-26T02:35:14;10.20;;;5.20;;
85734;SDS011;76179;42.316;22.856;2024-02-26T02:37:39;9.77;;;4.10;;
85734;SDS011;76179;42.316;22.856;2024-02-26T02:40:05;8.10;;;4.10;;
85734;SDS011;76179;42.316;22.856;2024-02-26T02:42:31;9.10;;;5.13;;
85734;SDS011;76179;42.316;22.856;2024-02-26T02:44:56;9.68;;;4.85;;
85734;SDS011;76179;42.316;22.856;2024-02-26T02:47:22;10.50;;;5.10;;
85734;SDS011;76179;42.316;22.856;2024-02-26T02:49:47;11.43;;;5.68;;
85734;SDS011;76179;42.316;22.856;2024-02-26T02:52:12;9.88;;;4.70;;
85734;SDS011;76179;42.316;22.856;2024-02-26T02:54:38;9.57;;;4.93;;
85734;SDS011;76179;42.316;22.856;2024-02-26T02:57:06;9.98;;;5.38;;
85734;SDS011;76179;42.316;22.856;2024-02-26T02:59:31;9.60;;;4.85;;
85734;SDS011;76179;42.316;22.856;2024-02-26T03:01:56;10.32;;;5.57;;
85734;SDS011;76179;42.316;22.856;2024-02-26T03:04:22;12.93;;;6.90;;
85734;SDS011;76179;42.316;22.856;2024-02-26T03:06:47;9.77;;;6.18;;
85734;SDS011;76179;42.316;22.856;2024-02-26T03:09:13;9.20;;;3.08;;
85734;SDS011;76179;42.316;22.856;2024-02-26T03:11:38;10.70;;;3.88;;
85734;SDS011;76179;42.316;22.856;2024-02-26T03:14:04;6.68;;;3.78;;
85734;SDS011;76179;42.316;22.856;2024-02-26T03:16:30;8.63;;;3.63;;
85734;SDS011;76179;42.316;22.856;2024-02-26T03:18:55;7.10;;;3.65;;
85734;SDS011;76179;42.316;22.856;2024-02-26T03:21:21;7.05;;;2.55;;
85734;SDS011;76179;42.316;22.856;2024-02-26T03:23:46;9.48;;;2.78;;
85734;SDS011;76179;42.316;22.856;2024-02-26T03:26:11;8.05;;;4.60;;
85734;SDS011;76179;42.316;22.856;2024-02-26T03:28:39;10.00;;;3.13;;
85734;SDS011;76179;42.316;22.856;2024-02-26T03:31:05;10.05;;;3.78;;
85734;SDS011;76179;42.316;22.856;2024-02-26T03:33:30;7.57;;;3.88;;
85734;SDS011;76179;42.316;22.856;2024-02-26T03:35:56;9.52;;;3.97;;
85734;SDS011;76179;42.316;22.856;2024-02-26T03:38:21;9.27;;;5.25;;
85734;SDS011;76179;42.316;22.856;2024-02-26T03:40:47;9.80;;;4.90;;
85734;SDS011;76179;42.316;22.856;2024-02-26T03:43:12;9.00;;;4.72;;
85734;SDS011;76179;42.316;22.856;2024-02-26T03:45:39;11.27;;;5.82;;
85734;SDS011;76179;42.316;22.856;2024-02-26T03:48:04;8.88;;;4.00;;
85734;SDS011;76179;42.316;22.856;2024-02-26T03:50:30;11.15;;;4.68;;
85734;SDS011;76179;42.316;22.856;2024-02-26T03:52:55;9.60;;;5.10;;
85734;SDS011;76179;42.316;22.856;2024-02-26T03:55:22;11.20;;;5.72;;
85734;SDS011;76179;42.316;22.856;2024-02-26T03:57:50;11.65;;;5.53;;
85734;SDS011;76179;42.316;22.856;2024-02-26T04:00:16;9.07;;;4.35;;
85734;SDS011;76179;42.316;22.856;2024-02-26T04:02:41;9.38;;;4.82;;
85734;SDS011;76179;42.316;22.856;2024-02-26T04:05:10;7.25;;;4.25;;
85734;SDS011;76179;42.316;22.856;2024-02-26T04:07:36;7.50;;;3.80;;
85734;SDS011;76179;42.316;22.856;2024-02-26T04:10:02;7.18;;;3.90;;
85734;SDS011;76179;42.316;22.856;2024-02-26T04:12:30;7.72;;;3.35;;
85734;SDS011;76179;42.316;22.856;2024-02-26T04:14:55;11.13;;;4.05;;
85734;SDS011;76179;42.316;22.856;2024-02-26T04:17:21;9.75;;;4.35;;
85734;SDS011;76179;42.316;22.856;2024-02-26T04:19:46;9.43;;;4.82;;
85734;SDS011;76179;42.316;22.856;2024-02-26T04:22:11;9.85;;;4.13;;
85734;SDS011;76179;42.316;22.856;2024-02-26T04:24:37;6.97;;;2.83;;
85734;SDS011;76179;42.316;22.856;2024-02-26T04:27:02;9.15;;;3.90;;
85734;SDS011;76179;42.316;22.856;2024-02-26T04:29:28;8.30;;;3.72;;
85734;SDS011;76179;42.316;22.856;2024-02-26T04:31:53;8.15;;;3.85;;
85734;SDS011;76179;42.316;22.856;2024-02-26T04:34:18;14.52;;;5.18;;
85734;SDS011;76179;42.316;22.856;2024-02-26T04:36:44;10.82;;;6.10;;
85734;SDS011;76179;42.316;22.856;2024-02-26T04:39:09;12.27;;;4.75;;
85734;SDS011;76179;42.316;22.856;2024-02-26T04:41:35;13.90;;;6.15;;
85734;SDS011;76179;42.316;22.856;2024-02-26T04:44:00;10.95;;;5.60;;
85734;SDS011;76179;42.316;22.856;2024-02-26T04:46:26;10.60;;;6.18;;
85734;SDS011;76179;42.316;22.856;2024-02-26T04:48:53;9.45;;;4.97;;
85734;SDS011;76179;42.316;22.856;2024-02-26T04:51:19;10.02;;;4.97;;
85734;SDS011;76179;42.316;22.856;2024-02-26T04:53:44;9.18;;;5.57;;
85734;SDS011;76179;42.316;22.856;2024-02-26T04:56:09;11.00;;;6.13;;
85734;SDS011;76179;42.316;22.856;2024-02-26T04:58:35;12.73;;;6.80;;
85734;SDS011;76179;42.316;22.856;2024-02-26T05:01:00;16.75;;;7.32;;
85734;SDS011;76179;42.316;22.856;2024-02-26T05:03:26;14.13;;;8.20;;
85734;SDS011;76179;42.316;22.856;2024-02-26T05:05:51;14.00;;;7.72;;
85734;SDS011;76179;42.316;22.856;2024-02-26T05:08:16;11.65;;;6.50;;
85734;SDS011;76179;42.316;22.856;2024-02-26T05:10:42;14.02;;;7.38;;
85734;SDS011;76179;42.316;22.856;2024-02-26T05:13:08;12.05;;;7.03;;
85734;SDS011;76179;42.316;22.856;2024-02-26T05:15:33;16.67;;;8.05;;
85734;SDS011;76179;42.316;22.856;2024-02-26T05:17:59;11.55;;;6.32;;
85734;SDS011;76179;42.316;22.856;2024-02-26T05:20:25;14.23;;;6.53;;
85734;SDS011;76179;42.316;22.856;2024-02-26T05:22:50;14.25;;;6.88;;
85734;SDS011;76179;42.316;22.856;2024-02-26T05:25:16;12.80;;;6.80;;
85734;SDS011;76179;42.316;22.856;2024-02-26T05:27:43;13.43;;;7.63;;
85734;SDS011;76179;42.316;22.856;2024-02-26T05:30:09;9.55;;;4.43;;
85734;SDS011;76179;42.316;22.856;2024-02-26T05:32:35;13.05;;;4.28;;
85734;SDS011;76179;42.316;22.856;2024-02-26T05:35:01;9.18;;;4.75;;
85734;SDS011;76179;42.316;22.856;2024-02-26T05:37:28;14.38;;;8.50;;
85734;SDS011;76179;42.316;22.856;2024-02-26T05:39:54;20.10;;;10.02;;
85734;SDS011;76179;42.316;22.856;2024-02-26T05:42:19;19.20;;;10.18;;
85734;SDS011;76179;42.316;22.856;2024-02-26T05:44:45;26.38;;;13.38;;
85734;SDS011;76179;42.316;22.856;2024-02-26T05:47:10;21.35;;;11.88;;
85734;SDS011;76179;42.316;22.856;2024-02-26T05:49:36;17.73;;;8.60;;
85734;SDS011;76179;42.316;22.856;2024-02-26T05:52:01;21.08;;;9.98;;
85734;SDS011;76179;42.316;22.856;2024-02-26T05:54:27;18.75;;;10.50;;
85734;SDS011;76179;42.316;22.856;2024-02-26T05:56:52;17.08;;;9.48;;
85734;SDS011;76179;42.316;22.856;2024-02-26T05:59:18;17.08;;;8.77;;
85734;SDS011;76179;42.316;22.856;2024-02-26T06:01:43;17.95;;;9.32;;
85734;SDS011;76179;42.316;22.856;2024-02-26T06:04:08;16.35;;;8.60;;
85734;SDS011;76179;42.316;22.856;2024-02-26T06:06:34;21.90;;;11.35;;
85734;SDS011;76179;42.316;22.856;2024-02-26T06:08:59;17.05;;;9.52;;
85734;SDS011;76179;42.316;22.856;2024-02-26T06:11:24;20.65;;;11.32;;
85734;SDS011;76179;42.316;22.856;2024-02-26T06:13:50;14.88;;;8.00;;
85734;SDS011;76179;42.316;22.856;2024-02-26T06:16:15;15.00;;;8.35;;
85734;SDS011;76179;42.316;22.856;2024-02-26T06:18:41;21.88;;;8.57;;
85734;SDS011;76179;42.316;22.856;2024-02-26T06:21:10;18.30;;;10.23;;
85734;SDS011;76179;42.316;22.856;2024-02-26T06:23:36;15.88;;;8.50;;
85734;SDS011;76179;42.316;22.856;2024-02-26T06:26:01;11.80;;;6.43;;
85734;SDS011;76179;42.316;22.856;2024-02-26T06:28:27;14.38;;;6.35;;
85734;SDS011;76179;42.316;22.856;2024-02-26T06:30:55;11.77;;;6.85;;
85734;SDS011;76179;42.316;22.856;2024-02-26T06:33:21;19.27;;;10.60;;
85734;SDS011;76179;42.316;22.856;2024-02-26T06:35:46;24.60;;;11.38;;
85734;SDS011;76179;42.316;22.856;2024-02-26T06:38:11;17.70;;;10.65;;
85734;SDS011;76179;42.316;22.856;2024-02-26T06:40:38;17.15;;;10.13;;
85734;SDS011;76179;42.316;22.856;2024-02-26T06:43:04;14.75;;;7.18;;
85734;SDS011;76179;42.316;22.856;2024-02-26T06:45:29;12.48;;;7.00;;
85734;SDS011;76179;42.316;22.856;2024-02-26T06:47:55;16.25;;;7.35;;
85734;SDS011;76179;42.316;22.856;2024-02-26T06:50:21;12.77;;;6.38;;
85734;SDS011;76179;42.316;22.856;2024-02-26T06:52:47;12.90;;;7.55;;
85734;SDS011;76179;42.316;22.856;2024-02-26T06:55:12;10.25;;;6.18;;
85734;SDS011;76179;42.316;22.856;2024-02-26T06:57:38;11.48;;;7.38;;
85734;SDS011;76179;42.316;22.856;2024-02-26T07:00:03;12.48;;;5.93;;
85734;SDS011;76179;42.316;22.856;2024-02-26T07:02:29;11.02;;;6.30;;
85734;SDS011;76179;42.316;22.856;2024-02-26T07:04:55;13.70;;;6.97;;
85734;SDS011;76179;42.316;22.856;2024-02-26T07:07:23;13.10;;;7.10;;
85734;SDS011;76179;42.316;22.856;2024-02-26T07:09:48;17.35;;;9.13;;
85734;SDS011;76179;42.316;22.856;2024-02-26T07:12:14;14.32;;;8.68;;
85734;SDS011;76179;42.316;22.856;2024-02-26T07:14:40;20.27;;;11.43;;
85734;SDS011;76179;42.316;22.856;2024-02-26T07:17:06;15.43;;;8.88;;
85734;SDS011;76179;42.316;22.856;2024-02-26T07:19:31;11.75;;;6.18;;
85734;SDS011;76179;42.316;22.856;2024-02-26T07:21:57;15.52;;;10.68;;
85734;SDS011;76179;42.316;22.856;2024-02-26T07:24:22;14.10;;;9.10;;
85734;SDS011;76179;42.316;22.856;2024-02-26T07:26:48;18.80;;;9.48;;
85734;SDS011;76179;42.316;22.856;2024-02-26T07:29:13;14.55;;;9.00;;
85734;SDS011;76179;42.316;22.856;2024-02-26T07:31:38;17.02;;;8.85;;
85734;SDS011;76179;42.316;22.856;2024-02-26T07:34:04;17.05;;;11.57;;
85734;SDS011;76179;42.316;22.856;2024-02-26T07:36:29;16.17;;;8.82;;
85734;SDS011;76179;42.316;22.856;2024-02-26T07:38:55;12.50;;;7.18;;
85734;SDS011;76179;42.316;22.856;2024-02-26T07:41:20;14.65;;;7.80;;
85734;SDS011;76179;42.316;22.856;2024-02-26T07:43:46;11.38;;;7.18;;
85734;SDS011;76179;42.316;22.856;2024-02-26T07:46:11;12.82;;;6.57;;
85734;SDS011;76179;42.316;22.856;2024-02-26T07:48:37;12.15;;;7.22;;
85734;SDS011;76179;42.316;22.856;2024-02-26T07:51:03;14.43;;;7.00;;
85734;SDS011;76179;42.316;22.856;2024-02-26T07:53:29;11.18;;;6.35;;
85734;SDS011;76179;42.316;22.856;2024-02-26T07:55:55;12.15;;;6.50;;
85734;SDS011;76179;42.316;22.856;2024-02-26T07:58:21;10.52;;;5.90;;
85734;SDS011;76179;42.316;22.856;2024-02-26T08:00:48;11.40;;;6.47;;
85734;SDS011;76179;42.316;22.856;2024-02-26T08:03:14;11.95;;;6.40;;
85734;SDS011;76179;42.316;22.856;2024-02-26T08:05:40;13.30;;;6.55;;
85734;SDS011;76179;42.316;22.856;2024-02-26T08:08:08;10.27;;;5.90;;
85734;SDS011;76179;42.316;22.856;2024-02-26T08:10:33;10.63;;;5.55;;
85734;SDS011;76179;42.316;22.856;2024-02-26T08:12:59;13.57;;;7.53;;
85734;SDS011;76179;42.316;22.856;2024-02-26T08:15:30;8.88;;;5.60;;
85734;SDS011;76179;42.316;22.856;2024-02-26T08:17:57;11.50;;;5.63;;
85734;SDS011;76179;42.316;22.856;2024-02-26T08:20:23;9.05;;;5.07;;
85734;SDS011;76179;42.316;22.856;2024-02-26T08:22:48;10.65;;;5.03;;
85734;SDS011;76179;42.316;22.856;2024-02-26T08:25:13;11.63;;;6.03;;
85734;SDS011;76179;42.316;22.856;2024-02-26T08:27:41;10.50;;;6.53;;
85734;SDS011;76179;42.316;22.856;2024-02-26T08:30:06;10.77;;;7.20;;
85734;SDS011;76179;42.316;22.856;2024-02-26T08:32:32;10.75;;;5.72;;
85734;SDS011;76179;42.316;22.856;2024-02-26T08:34:58;13.85;;;5.20;;
85734;SDS011;76179;42.316;22.856;2024-02-26T08:37:23;8.90;;;5.70;;
85734;SDS011;76179;42.316;22.856;2024-02-26T08:39:48;9.57;;;4.88;;
85734;SDS011;76179;42.316;22.856;2024-02-26T08:42:14;9.50;;;5.68;;
85734;SDS011;76179;42.316;22.856;2024-02-26T08:44:39;10.27;;;5.85;;
85734;SDS011;76179;42.316;22.856;2024-02-26T08:47:04;11.77;;;6.32;;
85734;SDS011;76179;42.316;22.856;2024-02-26T08:49:30;9.98;;;4.88;;
85734;SDS011;76179;42.316;22.856;2024-02-26T08:51:56;10.75;;;6.05;;
85734;SDS011;76179;42.316;22.856;2024-02-26T08:54:22;11.57;;;5.43;;
85734;SDS011;76179;42.316;22.856;2024-02-26T08:56:47;12.65;;;5.07;;
85734;SDS011;76179;42.316;22.856;2024-02-26T08:59:12;9.55;;;4.70;;
85734;SDS011;76179;42.316;22.856;2024-02-26T09:01:38;9.93;;;6.07;;
85734;SDS011;76179;42.316;22.856;2024-02-26T09:04:04;9.27;;;5.70;;
85734;SDS011;76179;42.316;22.856;2024-02-26T09:06:29;9.60;;;6.22;;
85734;SDS011;76179;42.316;22.856;2024-02-26T09:08:55;10.20;;;5.60;;
85734;SDS011;76179;42.316;22.856;2024-02-26T09:11:20;8.75;;;3.85;;
85734;SDS011;76179;42.316;22.856;2024-02-26T09:13:46;11.32;;;4.90;;
85734;SDS011;76179;42.316;22.856;2024-02-26T09:16:11;9.38;;;5.03;;
85734;SDS011;76179;42.316;22.856;2024-02-26T09:18:37;9.93;;;4.47;;
85734;SDS011;76179;42.316;22.856;2024-02-26T09:21:05;8.32;;;4.38;;
85734;SDS011;76179;42.316;22.856;2024-02-26T09:23:31;9.00;;;4.50;;
85734;SDS011;76179;42.316;22.856;2024-02-26T09:25:56;9.70;;;3.33;;
85734;SDS011;76179;42.316;22.856;2024-02-26T09:28:22;7.93;;;4.40;;
85734;SDS011;76179;42.316;22.856;2024-02-26T09:30:47;10.60;;;4.72;;
85734;SDS011;76179;42.316;22.856;2024-02-26T09:33:15;8.52;;;4.10;;
85734;SDS011;76179;42.316;22.856;2024-02-26T09:35:40;8.40;;;4.68;;
85734;SDS011;76179;42.316;22.856;2024-02-26T09:38:06;8.68;;;4.47;;
85734;SDS011;76179;42.316;22.856;2024-02-26T09:40:31;10.18;;;4.05;;
85734;SDS011;76179;42.316;22.856;2024-02-26T09:42:59;8.15;;;3.10;;
85734;SDS011;76179;42.316;22.856;2024-02-26T09:45:28;7.68;;;3.85;;
85734;SDS011;76179;42.316;22.856;2024-02-26T09:47:57;9.13;;;3.58;;
85734;SDS011;76179;42.316;22.856;2024-02-26T09:50:23;9.82;;;5.03;;
85734;SDS011;76179;42.316;22.856;2024-02-26T09:52:49;9.75;;;4.70;;
85734;SDS011;76179;42.316;22.856;2024-02-26T09:55:15;9.57;;;5.15;;
85734;SDS011;76179;42.316;22.856;2024-02-26T09:57:44;10.18;;;4.47;;
85734;SDS011;76179;42.316;22.856;2024-02-26T10:00:14;9.68;;;4.35;;
85734;SDS011;76179;42.316;22.856;2024-02-26T10:02:46;8.43;;;3.67;;
85734;SDS011;76179;42.316;22.856;2024-02-26T10:05:18;7.47;;;3.78;;
85734;SDS011;76179;42.316;22.856;2024-02-26T10:07:44;8.70;;;3.78;;
85734;SDS011;76179;42.316;22.856;2024-02-26T10:10:10;11.00;;;4.35;;
85734;SDS011;76179;42.316;22.856;2024-02-26T10:12:35;8.60;;;3.40;;
85734;SDS011;76179;42.316;22.856;2024-02-26T10:15:01;13.65;;;7.03;;
85734;SDS011;76179;42.316;22.856;2024-02-26T10:17:26;9.40;;;4.93;;
85734;SDS011;76179;42.316;22.856;2024-02-26T10:19:53;10.20;;;4.55;;
85734;SDS011;76179;42.316;22.856;2024-02-26T10:22:21;7.97;;;4.93;;
85734;SDS011;76179;42.316;22.856;2024-02-26T10:24:47;11.60;;;3.63;;
85734;SDS011;76179;42.316;22.856;2024-02-26T10:27:12;10.90;;;3.65;;
85734;SDS011;76179;42.316;22.856;2024-02-26T10:29:38;8.38;;;3.88;;
85734;SDS011;76179;42.316;22.856;2024-02-26T10:32:03;7.20;;;3.17;;
85734;SDS011;76179;42.316;22.856;2024-02-26T10:34:29;8.00;;;3.63;;
85734;SDS011;76179;42.316;22.856;2024-02-26T10:36:55;10.85;;;4.88;;
85734;SDS011;76179;42.316;22.856;2024-02-26T10:39:21;6.55;;;3.25;;
85734;SDS011;76179;42.316;22.856;2024-02-26T10:41:47;7.05;;;2.97;;
85734;SDS011;76179;42.316;22.856;2024-02-26T10:44:12;5.28;;;2.22;;
85734;SDS011;76179;42.316;22.856;2024-02-26T10:46:39;8.20;;;3.35;;
85734;SDS011;76179;42.316;22.856;2024-02-26T10:49:05;10.48;;;4.90;;
85734;SDS011;76179;42.316;22.856;2024-02-26T10:51:37;7.20;;;3.97;;
85734;SDS011;76179;42.316;22.856;2024-02-26T10:54:03;6.50;;;3.00;;
85734;SDS011;76179;42.316;22.856;2024-02-26T10:56:33;7.40;;;2.45;;
85734;SDS011;76179;42.316;22.856;2024-02-26T10:58:59;7.22;;;2.80;;
85734;SDS011;76179;42.316;22.856;2024-02-26T11:01:26;9.60;;;3.35;;
85734;SDS011;76179;42.316;22.856;2024-02-26T11:03:57;7.18;;;3.25;;
85734;SDS011;76179;42.316;22.856;2024-02-26T11:06:23;15.05;;;8.20;;
85734;SDS011;76179;42.316;22.856;2024-02-26T11:08:51;7.05;;;2.83;;
85734;SDS011;76179;42.316;22.856;2024-02-26T11:11:17;7.68;;;2.97;;
85734;SDS011;76179;42.316;22.856;2024-02-26T11:13:46;7.65;;;3.53;;
85734;SDS011;76179;42.316;22.856;2024-02-26T11:16:18;6.65;;;2.67;;
85734;SDS011;76179;42.316;22.856;2024-02-26T11:18:46;7.65;;;4.68;;
85734;SDS011;76179;42.316;22.856;2024-02-26T11:21:13;8.20;;;3.15;;
85734;SDS011;76179;42.316;22.856;2024-02-26T11:23:40;6.75;;;2.78;;
85734;SDS011;76179;42.316;22.856;2024-02-26T11:26:06;7.68;;;2.53;;
85734;SDS011;76179;42.316;22.856;2024-02-26T11:28:34;12.13;;;4.47;;
85734;SDS011;76179;42.316;22.856;2024-02-26T11:31:00;6.47;;;2.47;;
85734;SDS011;76179;42.316;22.856;2024-02-26T11:33:28;7.45;;;2.83;;
85734;SDS011;76179;42.316;22.856;2024-02-26T11:35:54;7.32;;;2.05;;
85734;SDS011;76179;42.316;22.856;2024-02-26T11:38:20;9.18;;;4.88;;
85734;SDS011;76179;42.316;22.856;2024-02-26T11:40:47;7.43;;;2.97;;
85734;SDS011;76179;42.316;22.856;2024-02-26T11:43:12;6.28;;;2.00;;
85734;SDS011;76179;42.316;22.856;2024-02-26T11:50:39;6.70;;;2.83;;
85734;SDS011;76179;42.316;22.856;2024-02-26T11:56:09;6.00;;;2.70;;
85734;SDS011;76179;42.316;22.856;2024-02-26T11:58:40;7.38;;;2.78;;
85734;SDS011;76179;42.316;22.856;2024-02-26T12:01:05;7.05;;;3.05;;
85734;SDS011;76179;42.316;22.856;2024-02-26T12:03:51;7.38;;;2.53;;
85734;SDS011;76179;42.316;22.856;2024-02-26T12:06:18;5.97;;;2.08;;
85734;SDS011;76179;42.316;22.856;2024-02-26T12:08:44;6.25;;;2.13;;
85734;SDS011;76179;42.316;22.856;2024-02-26T12:11:15;8.05;;;1.92;;
85734;SDS011;76179;42.316;22.856;2024-02-26T12:13:41;7.07;;;2.63;;
85734;SDS011;76179;42.316;22.856;2024-02-26T12:16:07;7.00;;;2.45;;
85734;SDS011;76179;42.316;22.856;2024-02-26T12:18:34;6.50;;;2.15;;
85734;SDS011;76179;42.316;22.856;2024-02-26T12:21:00;5.88;;;2.50;;
85734;SDS011;76179;42.316;22.856;2024-02-26T12:23:26;6.43;;;3.28;;
85734;SDS011;76179;42.316;22.856;2024-02-26T12:25:52;6.28;;;2.65;;
85734;SDS011;76179;42.316;22.856;2024-02-26T12:28:17;8.25;;;2.65;;
85734;SDS011;76179;42.316;22.856;2024-02-26T12:30:42;6.45;;;2.30;;
85734;SDS011;76179;42.316;22.856;2024-02-26T12:33:08;8.07;;;2.92;;
85734;SDS011;76179;42.316;22.856;2024-02-26T12:35:34;6.05;;;1.92;;
85734;SDS011;76179;42.316;22.856;2024-02-26T12:38:00;12.68;;;8.50;;
85734;SDS011;76179;42.316;22.856;2024-02-26T12:40:26;9.50;;;4.35;;
85734;SDS011;76179;42.316;22.856;2024-02-26T12:42:53;5.30;;;2.58;;
85734;SDS011;76179;42.316;22.856;2024-02-26T12:45:20;6.03;;;2.20;;
85734;SDS011;76179;42.316;22.856;2024-02-26T12:47:46;7.28;;;3.50;;
85734;SDS011;76179;42.316;22.856;2024-02-26T12:50:12;5.15;;;2.35;;
85734;SDS011;76179;42.316;22.856;2024-02-26T12:52:41;7.45;;;3.22;;
85734;SDS011;76179;42.316;22.856;2024-02-26T12:55:08;7.90;;;2.25;;
85734;SDS011;76179;42.316;22.856;2024-02-26T12:57:37;6.88;;;3.28;;
85734;SDS011;76179;42.316;22.856;2024-02-26T13:00:07;8.18;;;2.40;;
85734;SDS011;76179;42.316;22.856;2024-02-26T13:02:36;8.63;;;3.63;;
85734;SDS011;76179;42.316;22.856;2024-02-26T13:05:05;6.70;;;2.90;;
85734;SDS011;76179;42.316;22.856;2024-02-26T13:07:32;6.78;;;2.33;;
85734;SDS011;76179;42.316;22.856;2024-02-26T13:09:58;8.27;;;2.28;;
85734;SDS011;76179;42.316;22.856;2024-02-26T13:12:23;5.72;;;2.67;;
85734;SDS011;76179;42.316;22.856;2024-02-26T13:15:02;12.48;;;6.63;;
85734;SDS011;76179;42.316;22.856;2024-02-26T13:17:31;11.13;;;5.55;;
85734;SDS011;76179;42.316;22.856;2024-02-26T13:19:57;7.72;;;2.60;;
85734;SDS011;76179;42.316;22.856;2024-02-26T13:22:23;21.98;;;3.40;;
85734;SDS011;76179;42.316;22.856;2024-02-26T13:24:55;6.07;;;2.97;;
85734;SDS011;76179;42.316;22.856;2024-02-26T13:27:22;6.72;;;2.22;;
85734;SDS011;76179;42.316;22.856;2024-02-26T13:29:48;9.15;;;2.13;;
85734;SDS011;76179;42.316;22.856;2024-02-26T13:32:13;6.88;;;2.78;;
85734;SDS011;76179;42.316;22.856;2024-02-26T13:34:40;7.43;;;2.58;;
85734;SDS011;76179;42.316;22.856;2024-02-26T13:37:05;7.72;;;3.00;;
85734;SDS011;76179;42.316;22.856;2024-02-26T13:39:30;8.65;;;2.65;;
85734;SDS011;76179;42.316;22.856;2024-02-26T13:41:56;7.22;;;2.55;;
85734;SDS011;76179;42.316;22.856;2024-02-26T13:44:22;6.43;;;2.55;;
85734;SDS011;76179;42.316;22.856;2024-02-26T13:46:49;6.18;;;2.55;;
85734;SDS011;76179;42.316;22.856;2024-02-26T13:49:15;12.18;;;2.83;;
85734;SDS011;76179;42.316;22.856;2024-02-26T13:51:40;12.00;;;1.98;;
85734;SDS011;76179;42.316;22.856;2024-02-26T13:54:06;6.35;;;2.38;;
85734;SDS011;76179;42.316;22.856;2024-02-26T13:56:32;12.13;;;3.97;;
85734;SDS011;76179;42.316;22.856;2024-02-26T13:58:58;8.02;;;2.65;;
85734;SDS011;76179;42.316;22.856;2024-02-26T14:01:24;6.10;;;2.53;;
85734;SDS011;76179;42.316;22.856;2024-02-26T14:03:49;7.47;;;2.65;;
85734;SDS011;76179;42.316;22.856;2024-02-26T14:06:15;8.85;;;3.28;;
85734;SDS011;76179;42.316;22.856;2024-02-26T14:08:40;7.82;;;2.78;;
85734;SDS011;76179;42.316;22.856;2024-02-26T14:11:06;7.70;;;2.78;;
85734;SDS011;76179;42.316;22.856;2024-02-26T14:13:31;8.15;;;3.05;;
85734;SDS011;76179;42.316;22.856;2024-02-26T14:15:57;7.93;;;3.00;;
85734;SDS011;76179;42.316;22.856;2024-02-26T14:18:22;6.82;;;2.33;;
85734;SDS011;76179;42.316;22.856;2024-02-26T14:20:48;10.93;;;2.45;;
85734;SDS011;76179;42.316;22.856;2024-02-26T14:23:13;9.32;;;2.47;;
85734;SDS011;76179;42.316;22.856;2024-02-26T14:25:39;8.50;;;3.55;;
85734;SDS011;76179;42.316;22.856;2024-02-26T14:28:04;6.88;;;2.50;;
85734;SDS011;76179;42.316;22.856;2024-02-26T14:30:30;7.43;;;2.53;;